Time;durP1;ratioP1;P1;durP2;ratioP2;P2;SDS_P1;SDS_P2;PMS_P1;PMS_P2;Temp;Humidity;BMP_temperature;BMP_pressure;BME280_temperature;BME280_humidity;BME280_pressure;Samples;Min_cycle;Max_cycle;Signal;HPM_P1;HPM_P2
2023/03/22 00:01:20;;;;;;;99.80;16.50;;;12.10;66.70;;;;;;5064125;28;20448;-85
2023/03/22 00:03:47;;;;;;;173.17;19.10;;;12.00;66.50;;;;;;5039684;28;20504;-85
2023/03/22 00:06:15;;;;;;;97.60;16.23;;;11.80;66.30;;;;;;5054569;28;21016;-86
2023/03/22 00:08:42;;;;;;;94.60;15.20;;;11.50;67.80;;;;;;5065574;28;20510;-85
2023/03/22 00:11:11;;;;;;;140.23;20.67;;;11.10;68.90;;;;;;5062287;28;20447;-86
2023/03/22 00:13:41;;;;;;;131.87;15.87;;;11.00;69.50;;;;;;5069931;28;20468;-85
2023/03/22 00:16:09;;;;;;;76.47;13.67;;;10.90;69.90;;;;;;5032744;28;20563;-86
2023/03/22 00:18:37;;;;;;;75.13;13.30;;;10.60;70.30;;;;;;5048339;28;20456;-86
2023/03/22 00:21:04;;;;;;;132.23;15.10;;;10.50;70.90;;;;;;5027275;28;20443;-86
2023/03/22 00:23:32;;;;;;;101.27;15.83;;;10.70;70.80;;;;;;5069990;28;20444;-85
2023/03/22 00:25:59;;;;;;;156.80;15.00;;;10.80;71.40;;;;;;5029406;28;21084;-85
2023/03/22 00:28:28;;;;;;;44.20;11.87;;;10.80;70.60;;;;;;5055930;28;20471;-84
2023/03/22 00:30:57;;;;;;;30.33;12.30;;;11.20;70.60;;;;;;5028214;28;20453;-85
2023/03/22 00:33:27;;;;;;;103.20;15.77;;;11.60;69.80;;;;;;5048747;28;20459;-86
2023/03/22 00:35:57;;;;;;;138.23;17.00;;;12.00;67.90;;;;;;5069887;28;20468;-85
2023/03/22 00:38:25;;;;;;;114.43;14.90;;;12.00;66.10;;;;;;5042224;28;20449;-84
2023/03/22 00:40:53;;;;;;;73.90;15.00;;;11.50;66.40;;;;;;5047838;28;20464;-86
2023/03/22 00:43:20;;;;;;;134.17;16.50;;;11.10;68.90;;;;;;5045479;28;20460;-86
2023/03/22 00:45:48;;;;;;;33.27;11.63;;;11.10;68.50;;;;;;5030251;28;20464;-86
2023/03/22 00:48:15;;;;;;;33.30;10.77;;;11.40;68.10;;;;;;5045225;28;20468;-85
2023/03/22 00:50:42;;;;;;;28.43;11.93;;;11.40;67.30;;;;;;5046674;28;20437;-85
2023/03/22 00:53:09;;;;;;;47.77;11.77;;;11.70;67.40;;;;;;5022976;28;20448;-86
2023/03/22 00:55:38;;;;;;;54.47;11.77;;;11.70;65.70;;;;;;5022228;28;20472;-84
2023/03/22 00:58:05;;;;;;;27.90;10.33;;;11.10;67.30;;;;;;5043898;28;20531;-86
2023/03/22 01:00:32;;;;;;;32.50;11.70;;;11.10;68.80;;;;;;5047559;28;20468;-85
2023/03/22 01:03:03;;;;;;;88.07;13.70;;;11.40;68.10;;;;;;5062981;28;20464;-85
2023/03/22 01:05:32;;;;;;;55.80;14.53;;;11.50;66.90;;;;;;5040245;28;20988;-86
2023/03/22 01:08:07;;;;;;;45.00;9.90;;;11.30;68.10;;;;;;5031617;28;21019;-85
2023/03/22 01:10:35;;;;;;;29.57;9.70;;;11.40;67.60;;;;;;5046635;28;20940;-85
2023/03/22 01:13:02;;;;;;;62.10;15.33;;;11.20;67.40;;;;;;5056508;28;20454;-84
2023/03/22 01:15:30;;;;;;;62.00;17.00;;;11.20;68.20;;;;;;5063881;28;20472;-87
2023/03/22 01:17:57;;;;;;;46.17;12.80;;;11.20;69.20;;;;;;5062919;28;20459;-85
2023/03/22 01:20:27;;;;;;;23.93;12.43;;;11.30;68.30;;;;;;5025103;28;20469;-85
2023/03/22 01:22:54;;;;;;;59.90;15.37;;;11.50;68.50;;;;;;5046548;28;20498;-84
2023/03/22 01:25:22;;;;;;;33.17;13.07;;;11.80;67.90;;;;;;5020244;28;20541;-86
2023/03/22 01:27:49;;;;;;;89.97;16.57;;;12.00;66.90;;;;;;5057042;28;21028;-86
2023/03/22 01:30:16;;;;;;;24.20;11.30;;;12.20;66.30;;;;;;5037968;28;20551;-86
2023/03/22 01:32:43;;;;;;;53.13;14.50;;;12.30;65.80;;;;;;5046572;28;20825;-85
2023/03/22 01:35:13;;;;;;;37.33;12.53;;;12.30;66.10;;;;;;5038680;28;20475;-85
2023/03/22 01:37:44;;;;;;;46.63;12.30;;;12.40;65.90;;;;;;5030436;28;20456;-85
2023/03/22 01:40:13;;;;;;;34.23;10.70;;;12.50;65.50;;;;;;5043381;28;20468;-86
2023/03/22 01:42:40;;;;;;;40.93;12.40;;;12.60;64.70;;;;;;5052491;28;20445;-85
2023/03/22 01:45:36;;;;;;;24.43;11.17;;;12.70;64.70;;;;;;5029082;28;20476;-86
2023/03/22 01:48:08;;;;;;;20.57;11.83;;;12.60;64.70;;;;;;5048082;28;20458;-87
2023/03/22 01:50:41;;;;;;;25.07;11.80;;;12.70;64.50;;;;;;5022557;28;20435;-87
2023/03/22 01:53:12;;;;;;;30.27;11.03;;;12.60;64.60;;;;;;5021925;28;20441;-87
2023/03/22 01:55:41;;;;;;;22.07;11.63;;;12.70;64.50;;;;;;5028989;28;20497;-87
2023/03/22 01:58:14;;;;;;;22.37;12.23;;;12.60;64.70;;;;;;5024436;28;20440;-86
2023/03/22 02:00:50;;;;;;;28.63;12.63;;;12.90;64.40;;;;;;5029138;28;20479;-85
2023/03/22 02:03:48;;;;;;;31.20;11.40;;;13.00;63.70;;;;;;5040334;28;20432;-85
2023/03/22 02:06:16;;;;;;;19.00;9.50;;;12.90;63.40;;;;;;5034860;28;20476;-86
2023/03/22 02:08:45;;;;;;;28.50;11.20;;;12.90;63.70;;;;;;5036864;28;20457;-84
2023/03/22 02:11:17;;;;;;;22.13;10.90;;;12.80;63.80;;;;;;5042602;28;20571;-86
2023/03/22 02:14:09;;;;;;;27.20;12.10;;;12.80;64.10;;;;;;5045948;28;20512;-85
2023/03/22 02:17:06;;;;;;;21.47;11.60;;;12.80;63.90;;;;;;5037842;28;20475;-85
2023/03/22 02:20:12;;;;;;;21.10;11.10;;;13.00;63.50;;;;;;5056823;28;20461;-87
2023/03/22 02:23:09;;;;;;;24.20;10.87;;;13.10;63.00;;;;;;5057657;28;20826;-85
2023/03/22 02:26:10;;;;;;;20.53;10.40;;;13.00;62.00;;;;;;5029620;28;20493;-86
2023/03/22 02:28:46;;;;;;;14.77;9.03;;;12.70;63.10;;;;;;5054310;28;20471;-85
2023/03/22 02:31:49;;;;;;;16.60;9.93;;;12.60;63.30;;;;;;5047138;28;20451;-86
2023/03/22 02:35:15;;;;;;;14.17;8.40;;;12.60;63.80;;;;;;5006142;28;20855;-86
2023/03/22 02:38:04;;;;;;;14.00;8.27;;;12.60;63.20;;;;;;5042939;28;20448;-85
2023/03/22 02:40:39;;;;;;;10.87;7.37;;;12.80;63.00;;;;;;5037256;28;20467;-87
2023/03/22 02:43:15;;;;;;;16.40;9.03;;;13.00;63.00;;;;;;5043558;28;20447;-85
2023/03/22 02:45:46;;;;;;;17.17;10.47;;;12.90;62.70;;;;;;5043906;28;20981;-85
2023/03/22 02:48:17;;;;;;;19.17;10.77;;;12.90;62.90;;;;;;5042637;28;20451;-85
2023/03/22 02:50:51;;;;;;;21.43;10.60;;;12.90;63.30;;;;;;5038458;28;20440;-85
2023/03/22 02:53:23;;;;;;;21.37;11.00;;;12.80;63.60;;;;;;5072898;28;20931;-86
2023/03/22 02:55:56;;;;;;;25.00;13.03;;;12.80;63.80;;;;;;5031398;28;20823;-87
2023/03/22 02:58:26;;;;;;;23.57;10.87;;;12.80;64.10;;;;;;5074096;28;21014;-85
2023/03/22 03:00:58;;;;;;;23.80;11.53;;;12.80;64.10;;;;;;5060088;28;20923;-86
2023/03/22 03:03:29;;;;;;;29.77;10.80;;;12.90;63.80;;;;;;5040842;28;20444;-85
2023/03/22 03:06:01;;;;;;;37.37;11.30;;;12.90;63.80;;;;;;5057437;28;20508;-86
2023/03/22 03:08:28;;;;;;;18.60;10.50;;;12.70;64.20;;;;;;5032667;28;20468;-87
2023/03/22 03:10:58;;;;;;;22.27;10.47;;;12.70;64.30;;;;;;5032735;28;20448;-85
2023/03/22 03:13:25;;;;;;;16.97;10.57;;;12.50;64.50;;;;;;5042808;28;20988;-86
2023/03/22 03:15:56;;;;;;;27.20;11.40;;;12.40;65.20;;;;;;5054738;28;20471;-85
2023/03/22 03:18:43;;;;;;;20.30;11.03;;;12.60;64.70;;;;;;5065376;28;20444;-85
2023/03/22 03:21:24;;;;;;;17.20;10.13;;;12.80;64.00;;;;;;5042242;28;20472;-86
2023/03/22 03:23:59;;;;;;;17.00;9.80;;;12.80;64.10;;;;;;5031330;28;20494;-86
2023/03/22 03:26:35;;;;;;;17.73;9.43;;;12.80;64.00;;;;;;5026001;28;20470;-87
2023/03/22 03:29:05;;;;;;;18.93;10.20;;;12.70;63.90;;;;;;5046892;28;20512;-86
2023/03/22 03:31:39;;;;;;;15.73;9.70;;;12.90;62.80;;;;;;5040375;28;20431;-86
2023/03/22 03:34:15;;;;;;;12.80;8.23;;;12.90;62.60;;;;;;5045733;28;20454;-85
2023/03/22 03:36:50;;;;;;;15.10;8.67;;;12.90;62.70;;;;;;5049297;28;20491;-87
2023/03/22 03:39:20;;;;;;;12.60;8.97;;;13.00;62.40;;;;;;5039590;28;20443;-85
2023/03/22 03:41:53;;;;;;;14.50;9.97;;;13.00;62.00;;;;;;5032316;28;20452;-85
2023/03/22 03:44:20;;;;;;;22.60;9.03;;;13.10;61.90;;;;;;5029686;28;20449;-86
2023/03/22 03:46:49;;;;;;;18.97;11.43;;;13.00;61.90;;;;;;5042000;28;20462;-86
2023/03/22 03:49:17;;;;;;;17.20;8.80;;;12.70;62.90;;;;;;5046855;28;20459;-86
2023/03/22 03:51:49;;;;;;;14.67;9.53;;;12.50;63.40;;;;;;5056436;28;20498;-85
2023/03/22 03:54:17;;;;;;;14.63;9.63;;;12.50;63.70;;;;;;5041315;28;20474;-85
2023/03/22 03:56:46;;;;;;;16.57;8.90;;;12.60;63.50;;;;;;5046841;28;21049;-86
2023/03/22 03:59:15;;;;;;;15.60;8.97;;;12.80;63.00;;;;;;5054660;28;20965;-85
2023/03/22 04:01:48;;;;;;;18.67;10.63;;;12.90;62.00;;;;;;5050384;28;20550;-86
2023/03/22 04:04:24;;;;;;;18.73;10.97;;;12.90;61.10;;;;;;5024409;28;20957;-86
2023/03/22 04:06:56;;;;;;;16.50;9.50;;;12.90;61.60;;;;;;5047738;28;20518;-86
2023/03/22 04:09:26;;;;;;;15.20;10.17;;;12.80;61.60;;;;;;5036126;28;20871;-86
2023/03/22 04:11:57;;;;;;;18.07;10.20;;;12.90;62.00;;;;;;5051367;28;21421;-87
2023/03/22 04:14:26;;;;;;;17.77;10.07;;;12.90;62.00;;;;;;5032055;28;20452;-87
2023/03/22 04:16:56;;;;;;;19.60;11.10;;;12.90;62.20;;;;;;5048684;28;20551;-86
2023/03/22 04:19:25;;;;;;;19.23;10.80;;;12.90;62.60;;;;;;5022425;28;20483;-86
2023/03/22 04:21:52;;;;;;;22.10;10.90;;;12.90;62.30;;;;;;5051539;28;20455;-85
2023/03/22 04:24:20;;;;;;;17.87;10.90;;;12.80;62.70;;;;;;5047659;28;20456;-86
2023/03/22 04:26:51;;;;;;;22.60;10.50;;;12.90;62.60;;;;;;5065379;28;20492;-85
2023/03/22 04:29:31;;;;;;;17.47;9.90;;;13.00;61.90;;;;;;5047876;28;20443;-86
2023/03/22 04:32:05;;;;;;;18.33;10.40;;;13.00;62.80;;;;;;5030138;28;20563;-85
2023/03/22 04:34:38;;;;;;;17.80;10.00;;;13.00;61.50;;;;;;5028370;28;20822;-85
2023/03/22 04:37:11;;;;;;;18.77;9.73;;;12.80;62.10;;;;;;5042770;28;20455;-85
2023/03/22 04:39:46;;;;;;;19.80;11.37;;;12.70;62.60;;;;;;5044360;28;20448;-86
2023/03/22 04:42:34;;;;;;;20.53;10.40;;;12.70;62.80;;;;;;5057034;28;20865;-86
2023/03/22 04:45:12;;;;;;;20.80;10.23;;;12.80;62.40;;;;;;5060094;28;20502;-84
2023/03/22 04:47:42;;;;;;;22.30;10.30;;;12.80;62.60;;;;;;5059406;28;20444;-86
2023/03/22 04:50:09;;;;;;;16.93;10.73;;;12.80;61.50;;;;;;5054822;28;20452;-85
2023/03/22 04:52:46;;;;;;;24.87;11.77;;;12.90;61.40;;;;;;5035161;28;20439;-86
2023/03/22 04:55:14;;;;;;;21.20;11.00;;;12.90;61.20;;;;;;5061468;28;20493;-86
2023/03/22 04:57:43;;;;;;;64.73;12.23;;;12.80;61.80;;;;;;5052455;28;20543;-87
2023/03/22 05:00:14;;;;;;;23.40;11.53;;;12.80;61.70;;;;;;5056693;28;20452;-85
2023/03/22 05:02:42;;;;;;;27.83;11.40;;;12.80;61.90;;;;;;5030773;28;20544;-87
2023/03/22 05:05:17;;;;;;;37.33;12.10;;;12.60;62.60;;;;;;5025727;28;20460;-86
2023/03/22 05:07:45;;;;;;;72.70;14.40;;;12.60;62.70;;;;;;5050285;28;20445;-85
2023/03/22 05:10:13;;;;;;;116.90;16.10;;;12.70;62.60;;;;;;5057187;28;20477;-86
2023/03/22 05:12:40;;;;;;;73.77;15.53;;;12.70;62.40;;;;;;5027608;28;20509;-86
2023/03/22 05:15:19;;;;;;;52.57;14.47;;;12.60;62.40;;;;;;5048005;28;21510;-86
2023/03/22 05:17:48;;;;;;;199.20;18.00;;;12.60;62.40;;;;;;5044863;28;20441;-87
2023/03/22 05:20:15;;;;;;;119.80;15.83;;;12.60;62.10;;;;;;5047274;28;20451;-86
2023/03/22 05:22:49;;;;;;;77.63;16.80;;;12.70;61.80;;;;;;5048471;28;20447;-87
2023/03/22 05:25:17;;;;;;;407.83;67.20;;;12.50;62.10;;;;;;5039532;28;21888;-86
2023/03/22 05:27:49;;;;;;;105.77;25.50;;;12.00;63.00;;;;;;5039804;28;20452;-86
2023/03/22 05:30:40;;;;;;;184.20;22.50;;;12.00;64.10;;;;;;5006495;28;20440;-86
2023/03/22 05:33:20;;;;;;;117.70;18.63;;;12.20;63.50;;;;;;5047915;28;20981;-87
2023/03/22 05:35:49;;;;;;;78.40;14.10;;;12.10;63.00;;;;;;5033586;28;20507;-87
2023/03/22 05:38:17;;;;;;;81.27;15.90;;;12.20;63.20;;;;;;5028197;28;20443;-86
2023/03/22 05:40:49;;;;;;;31.73;13.53;;;12.30;63.10;;;;;;5044765;28;20472;-87
2023/03/22 05:43:17;;;;;;;32.53;14.90;;;12.40;62.80;;;;;;5028354;28;20448;-84
2023/03/22 05:45:49;;;;;;;104.57;32.63;;;12.40;62.70;;;;;;5044606;28;20475;-85
2023/03/22 05:48:35;;;;;;;95.20;18.00;;;12.30;62.90;;;;;;5027635;28;20459;-86
2023/03/22 05:51:05;;;;;;;26.03;12.50;;;12.30;63.30;;;;;;5042988;28;20440;-84
2023/03/22 05:53:33;;;;;;;74.10;15.47;;;12.20;63.30;;;;;;5046529;28;20980;-85
2023/03/22 05:56:09;;;;;;;53.50;14.23;;;12.30;63.10;;;;;;5041833;28;20567;-85
2023/03/22 05:58:38;;;;;;;53.17;14.03;;;12.20;63.40;;;;;;5040181;28;20440;-85
2023/03/22 06:01:09;;;;;;;77.07;15.10;;;12.20;63.40;;;;;;5064037;28;20498;-85
2023/03/22 06:03:47;;;;;;;52.73;22.27;;;12.30;63.40;;;;;;5060012;28;20452;-86
2023/03/22 06:06:26;;;;;;;81.77;44.03;;;12.30;63.30;;;;;;5027245;28;20477;-85
2023/03/22 06:09:03;;;;;;;145.40;20.63;;;12.50;63.10;;;;;;5048071;28;20526;-86
2023/03/22 06:11:32;;;;;;;42.83;18.00;;;12.30;62.50;;;;;;5024998;28;20455;-85
2023/03/22 06:14:00;;;;;;;37.43;15.67;;;12.10;63.90;;;;;;5025644;28;20497;-86
2023/03/22 06:16:35;;;;;;;38.03;15.20;;;11.70;65.10;;;;;;5041874;28;22686;-85
2023/03/22 06:19:02;;;;;;;24.17;13.13;;;11.70;65.30;;;;;;5023362;28;20457;-85
2023/03/22 06:21:29;;;;;;;22.73;14.20;;;11.90;65.80;;;;;;5022081;28;20465;-84
2023/03/22 06:23:56;;;;;;;27.70;16.03;;;12.10;65.10;;;;;;5051749;28;20953;-85
2023/03/22 06:26:24;;;;;;;32.27;15.00;;;12.20;65.00;;;;;;5024988;28;20476;-86
2023/03/22 06:28:51;;;;;;;31.27;16.53;;;12.40;64.30;;;;;;5035685;28;21226;-86
2023/03/22 06:31:18;;;;;;;42.73;17.90;;;12.50;63.70;;;;;;5056989;28;20457;-86
2023/03/22 06:34:04;;;;;;;28.90;15.00;;;12.50;63.80;;;;;;5043325;28;20978;-86
2023/03/22 06:36:41;;;;;;;35.80;16.40;;;12.50;63.50;;;;;;5037062;28;20467;-85
2023/03/22 06:39:24;;;;;;;35.47;15.77;;;12.10;64.90;;;;;;5034978;28;20455;-86
2023/03/22 06:41:52;;;;;;;23.87;11.57;;;12.10;65.50;;;;;;5021403;28;20478;-86
2023/03/22 06:44:21;;;;;;;22.60;11.33;;;12.30;65.20;;;;;;5034755;28;20453;-86
2023/03/22 06:46:51;;;;;;;17.80;11.63;;;12.60;64.20;;;;;;5068408;28;20469;-86
2023/03/22 06:49:45;;;;;;;19.77;10.60;;;12.70;63.50;;;;;;5025924;28;20455;-86
2023/03/22 06:52:19;;;;;;;22.10;12.43;;;12.60;63.80;;;;;;5040129;28;20537;-86
2023/03/22 06:54:46;;;;;;;18.40;10.87;;;12.40;64.40;;;;;;5042976;28;20452;-85
2023/03/22 06:57:14;;;;;;;24.03;12.53;;;12.30;65.20;;;;;;5043319;28;20451;-85
2023/03/22 06:59:42;;;;;;;23.43;12.67;;;12.10;65.70;;;;;;5017706;28;20447;-85
2023/03/22 07:02:12;;;;;;;25.63;14.80;;;12.40;65.40;;;;;;5055261;28;20463;-86
2023/03/22 07:04:41;;;;;;;25.77;13.67;;;12.50;64.50;;;;;;5046340;28;20542;-86
2023/03/22 07:07:10;;;;;;;23.90;16.23;;;12.70;64.30;;;;;;5023945;28;21027;-86
2023/03/22 07:09:39;;;;;;;21.07;13.97;;;12.70;64.20;;;;;;5058168;28;20448;-87
2023/03/22 07:12:07;;;;;;;24.43;14.50;;;12.50;64.40;;;;;;5035773;28;20521;-83
2023/03/22 07:14:34;;;;;;;24.77;15.77;;;12.50;65.00;;;;;;5031946;28;20444;-85
2023/03/22 07:17:20;;;;;;;24.47;16.77;;;12.70;64.10;;;;;;5038828;28;20448;-85
2023/03/22 07:19:47;;;;;;;20.40;14.60;;;12.90;63.70;;;;;;5036603;28;20445;-85
2023/03/22 07:22:16;;;;;;;22.53;15.33;;;13.00;63.50;;;;;;5040110;28;20570;-85
2023/03/22 07:24:45;;;;;;;20.47;14.70;;;13.10;63.40;;;;;;5025034;28;20446;-85
2023/03/22 07:27:11;;;;;;;28.97;18.63;;;13.10;63.10;;;;;;5021669;28;20452;-85
2023/03/22 07:29:38;;;;;;;24.37;17.93;;;13.10;63.20;;;;;;5051728;28;20440;-85
2023/03/22 07:32:06;;;;;;;24.60;15.27;;;13.00;63.20;;;;;;5019654;28;20471;-85
2023/03/22 07:34:53;;;;;;;18.17;12.33;;;13.00;63.50;;;;;;5042457;28;20458;-85
2023/03/22 07:37:21;;;;;;;17.77;13.10;;;13.10;63.50;;;;;;5033499;28;20444;-85
2023/03/22 07:39:48;;;;;;;18.53;13.60;;;13.10;63.10;;;;;;5069671;28;20447;-84
2023/03/22 07:42:15;;;;;;;20.73;13.90;;;12.90;63.60;;;;;;5023166;28;20479;-86
2023/03/22 07:44:42;;;;;;;18.83;13.10;;;13.10;63.70;;;;;;5058136;28;20869;-85
2023/03/22 07:47:18;;;;;;;25.10;14.97;;;13.20;63.40;;;;;;5066077;28;21277;-85
2023/03/22 07:49:59;;;;;;;22.70;15.90;;;13.30;63.30;;;;;;5025774;28;20462;-84
2023/03/22 07:52:31;;;;;;;21.23;15.00;;;13.30;63.40;;;;;;5027358;28;20432;-84
2023/03/22 07:54:58;;;;;;;18.63;13.03;;;13.20;63.70;;;;;;5027697;28;20444;-84
2023/03/22 07:57:25;;;;;;;18.70;13.60;;;13.30;63.50;;;;;;5026977;28;21184;-84
2023/03/22 07:59:59;;;;;;;25.77;16.33;;;13.30;64.10;;;;;;5043134;28;20461;-84
2023/03/22 08:02:44;;;;;;;23.00;16.43;;;13.30;64.70;;;;;;5055696;28;20482;-85
2023/03/22 08:05:14;;;;;;;27.80;19.40;;;13.30;65.30;;;;;;5043628;28;20459;-84
2023/03/22 08:07:45;;;;;;;27.50;18.20;;;13.30;65.60;;;;;;5056679;28;20452;-85
2023/03/22 08:10:13;;;;;;;25.10;19.00;;;13.40;66.00;;;;;;5038039;28;20483;-84
2023/03/22 08:12:40;;;;;;;17.43;12.13;;;13.40;66.50;;;;;;5028158;28;20490;-85
2023/03/22 08:15:13;;;;;;;12.57;9.97;;;13.60;66.40;;;;;;5052457;28;20476;-84
2023/03/22 08:17:42;;;;;;;16.53;11.87;;;13.70;65.70;;;;;;5029353;28;20444;-85
2023/03/22 08:20:17;;;;;;;7.03;5.73;;;13.80;65.30;;;;;;5051592;28;20449;-85
2023/03/22 08:22:51;;;;;;;7.57;5.40;;;13.70;65.00;;;;;;5039660;28;20475;-85
2023/03/22 08:25:28;;;;;;;5.53;4.80;;;13.90;64.90;;;;;;5055874;28;20471;-85
2023/03/22 08:28:00;;;;;;;6.77;4.20;;;14.10;64.60;;;;;;5058374;28;20475;-85
2023/03/22 08:30:27;;;;;;;6.97;5.33;;;14.30;64.30;;;;;;5042801;28;20452;-84
2023/03/22 08:32:54;;;;;;;4.83;4.33;;;14.50;63.20;;;;;;5036649;28;20867;-85
2023/03/22 08:35:21;;;;;;;9.50;3.83;;;14.70;62.90;;;;;;5042076;28;20473;-84
2023/03/22 08:37:55;;;;;;;10.53;3.80;;;14.80;62.40;;;;;;5045074;28;20445;-86
2023/03/22 08:40:25;;;;;;;4.10;3.70;;;15.00;61.70;;;;;;5043807;28;20454;-85
2023/03/22 08:42:57;;;;;;;3.93;3.50;;;15.20;61.30;;;;;;5052433;28;20468;-85
2023/03/22 08:45:24;;;;;;;4.33;3.40;;;15.40;61.70;;;;;;5044837;28;20472;-86
2023/03/22 08:48:00;;;;;;;3.20;2.90;;;15.60;60.60;;;;;;5044069;28;20480;-85
2023/03/22 08:50:29;;;;;;;3.47;2.60;;;15.90;60.70;;;;;;5041825;28;20444;-86
2023/03/22 08:53:09;;;;;;;4.27;3.17;;;16.00;59.50;;;;;;5025965;28;20520;-85
2023/03/22 08:55:38;;;;;;;5.30;3.10;;;16.20;59.60;;;;;;5035574;28;20475;-86
2023/03/22 08:58:12;;;;;;;2.63;2.30;;;16.30;58.70;;;;;;5034863;28;20440;-86
2023/03/22 09:01:19;;;;;;;2.53;2.33;;;16.40;58.90;;;;;;5021058;28;20451;-85
2023/03/22 09:04:02;;;;;;;2.80;2.27;;;16.30;59.30;;;;;;5040577;28;20556;-85
2023/03/22 09:06:30;;;;;;;1.90;1.80;;;16.40;59.10;;;;;;5025971;28;20556;-85
2023/03/22 09:08:58;;;;;;;2.90;2.10;;;16.50;58.40;;;;;;5022854;28;20510;-85
2023/03/22 09:11:26;;;;;;;4.37;4.07;;;16.70;57.90;;;;;;5038077;28;20994;-84
2023/03/22 09:13:53;;;;;;;4.63;2.33;;;16.80;57.40;;;;;;5054944;28;20472;-85
2023/03/22 09:16:20;;;;;;;2.80;1.67;;;16.60;55.60;;;;;;5069131;28;20486;-84
2023/03/22 09:18:48;;;;;;;1.90;1.60;;;16.50;57.40;;;;;;5026330;28;20502;-85
2023/03/22 09:21:18;;;;;;;2.90;2.07;;;16.60;57.50;;;;;;5022942;28;20490;-85
2023/03/22 09:23:51;;;;;;;1.70;1.60;;;16.70;57.00;;;;;;5060825;28;20978;-85
2023/03/22 09:26:24;;;;;;;5.40;1.63;;;16.80;55.40;;;;;;5041112;28;20468;-85
2023/03/22 09:28:52;;;;;;;1.93;1.37;;;16.80;55.40;;;;;;5039169;28;20952;-85
2023/03/22 09:31:19;;;;;;;2.33;1.57;;;16.80;55.80;;;;;;5042060;28;20647;-85
2023/03/22 09:33:48;;;;;;;1.97;1.23;;;16.80;53.80;;;;;;5053221;28;20452;-84
2023/03/22 09:36:16;;;;;;;3.03;1.53;;;16.90;54.90;;;;;;5056395;28;20972;-85
2023/03/22 09:38:44;;;;;;;1.93;1.47;;;17.10;53.30;;;;;;5041695;28;20457;-84
2023/03/22 09:41:15;;;;;;;3.33;1.60;;;17.40;55.20;;;;;;5065013;28;20452;-84
2023/03/22 09:43:48;;;;;;;1.43;1.33;;;17.50;55.30;;;;;;5052555;28;20572;-85
2023/03/22 09:46:19;;;;;;;3.73;1.50;;;17.30;53.60;;;;;;5037030;28;20468;-85
2023/03/22 09:48:48;;;;;;;5.50;1.37;;;17.00;52.30;;;;;;5037597;28;21250;-83
2023/03/22 09:51:33;;;;;;;1.37;1.27;;;17.00;52.10;;;;;;5064209;28;20972;-84
2023/03/22 09:54:00;;;;;;;3.00;2.17;;;17.20;51.70;;;;;;5035096;28;20946;-85
2023/03/22 09:56:31;;;;;;;2.73;2.00;;;17.20;51.90;;;;;;5054704;28;20478;-84
2023/03/22 09:59:06;;;;;;;1.70;1.60;;;17.30;51.10;;;;;;5025616;28;20456;-85
2023/03/22 10:01:41;;;;;;;7.00;2.80;;;17.50;50.90;;;;;;5054117;28;20455;-85
2023/03/22 10:04:38;;;;;;;2.83;2.60;;;17.50;49.80;;;;;;5025161;28;21308;-85
2023/03/22 10:07:11;;;;;;;1.60;1.50;;;17.40;51.60;;;;;;5036066;28;20826;-84
2023/03/22 10:09:47;;;;;;;1.20;1.10;;;17.50;49.90;;;;;;5036492;28;20447;-85
2023/03/22 10:12:21;;;;;;;3.10;2.90;;;17.70;49.40;;;;;;5050008;28;20435;-85
2023/03/22 10:14:57;;;;;;;1.87;1.77;;;17.90;49.40;;;;;;5044117;28;20452;-85
2023/03/22 10:17:26;;;;;;;1.70;1.30;;;18.10;49.00;;;;;;5050877;28;21022;-85
2023/03/22 10:19:57;;;;;;;2.20;1.00;;;18.50;50.00;;;;;;5033916;28;20460;-84
2023/03/22 10:22:29;;;;;;;5.17;1.47;;;18.60;47.20;;;;;;5051498;28;20529;-85
2023/03/22 10:24:57;;;;;;;1.50;1.33;;;18.40;47.40;;;;;;5057975;28;20455;-85
2023/03/22 10:27:25;;;;;;;2.93;1.03;;;18.30;47.30;;;;;;5055516;28;20461;-84
2023/03/22 10:30:00;;;;;;;2.23;1.03;;;18.30;47.00;;;;;;5037738;28;20452;-85
2023/03/22 10:32:34;;;;;;;1.00;0.90;;;18.40;47.70;;;;;;5024666;28;20535;-84
2023/03/22 10:35:00;;;;;;;2.07;1.07;;;18.70;47.60;;;;;;5040619;28;20459;-85
2023/03/22 10:37:31;;;;;;;3.27;1.23;;;19.00;46.90;;;;;;5054025;28;21208;-85
2023/03/22 10:40:05;;;;;;;1.50;1.17;;;19.50;47.30;;;;;;5049202;28;20458;-84
2023/03/22 10:42:34;;;;;;;3.50;1.50;;;19.60;45.80;;;;;;5035481;28;20472;-84
2023/03/22 10:45:06;;;;;;;1.70;1.20;;;19.80;46.60;;;;;;5040396;28;20468;-85
2023/03/22 10:47:39;;;;;;;3.00;1.10;;;19.80;45.30;;;;;;5026382;28;20905;-84
2023/03/22 10:50:12;;;;;;;1.30;1.17;;;20.00;45.30;;;;;;5032804;28;20447;-83
2023/03/22 10:52:45;;;;;;;2.53;1.00;;;20.50;45.10;;;;;;5033417;28;20460;-84
2023/03/22 10:55:15;;;;;;;2.90;1.10;;;20.60;43.40;;;;;;5050750;28;20482;-84
2023/03/22 10:57:51;;;;;;;1.40;1.30;;;20.30;42.50;;;;;;5057538;28;20505;-84
2023/03/22 11:00:22;;;;;;;1.10;0.97;;;20.60;44.40;;;;;;5049278;28;20439;-85
2023/03/22 11:02:53;;;;;;;1.20;0.93;;;20.60;43.70;;;;;;5036921;28;20570;-85
2023/03/22 11:05:23;;;;;;;1.20;1.10;;;20.60;42.10;;;;;;5017411;28;20476;-84
2023/03/22 11:07:50;;;;;;;1.03;0.93;;;20.30;42.20;;;;;;5024898;28;20549;-86
2023/03/22 11:10:26;;;;;;;2.30;1.10;;;20.20;42.70;;;;;;5065375;28;20445;-85
2023/03/22 11:12:55;;;;;;;2.60;1.10;;;20.20;42.40;;;;;;5057274;28;20523;-84
2023/03/22 11:15:31;;;;;;;2.33;1.10;;;19.80;41.70;;;;;;5060852;28;20471;-84
2023/03/22 11:18:01;;;;;;;1.30;1.20;;;19.60;42.50;;;;;;5038613;28;20504;-84
2023/03/22 11:20:28;;;;;;;2.17;1.07;;;19.70;43.10;;;;;;5056360;28;20971;-84
2023/03/22 11:22:56;;;;;;;2.20;1.20;;;19.80;42.80;;;;;;5055670;28;20476;-85
2023/03/22 11:25:27;;;;;;;1.07;0.97;;;19.60;42.80;;;;;;5070029;28;20556;-85
2023/03/22 11:27:56;;;;;;;1.47;1.10;;;19.80;42.80;;;;;;5045573;28;20986;-84
2023/03/22 11:30:25;;;;;;;2.13;1.17;;;19.90;41.90;;;;;;5028648;28;20476;-84
2023/03/22 11:33:09;;;;;;;1.70;1.30;;;20.00;41.50;;;;;;5027371;28;20479;-85
2023/03/22 11:35:38;;;;;;;1.10;1.00;;;20.00;42.30;;;;;;5028065;28;20472;-85
2023/03/22 11:38:06;;;;;;;1.40;1.30;;;20.00;42.10;;;;;;5026188;28;20451;-84
2023/03/22 11:40:36;;;;;;;1.10;1.00;;;20.10;42.90;;;;;;5039190;28;20518;-85
2023/03/22 11:43:16;;;;;;;3.00;1.20;;;20.10;43.20;;;;;;5043004;28;20467;-84
2023/03/22 11:45:44;;;;;;;2.30;1.27;;;20.20;43.30;;;;;;5039580;28;20467;-84
2023/03/22 11:48:17;;;;;;;1.77;1.30;;;20.60;43.70;;;;;;5027183;28;20451;-85
2023/03/22 11:50:45;;;;;;;1.23;1.10;;;20.80;41.60;;;;;;5068926;28;21076;-85
2023/03/22 11:53:15;;;;;;;1.63;1.00;;;20.90;42.00;;;;;;5067193;28;20456;-84
2023/03/22 11:55:43;;;;;;;3.63;1.40;;;20.40;41.70;;;;;;5051303;28;20466;-84
2023/03/22 11:58:26;;;;;;;1.23;1.10;;;20.30;42.50;;;;;;5059959;28;20530;-84
2023/03/22 12:00:55;;;;;;;1.40;1.10;;;20.30;42.40;;;;;;5045234;28;21243;-84
2023/03/22 12:03:27;;;;;;;1.00;0.90;;;20.70;41.50;;;;;;5047896;28;20480;-85
2023/03/22 12:05:55;;;;;;;1.10;1.00;;;21.00;42.90;;;;;;5043087;28;20468;-85
2023/03/22 12:08:28;;;;;;;3.43;1.00;;;21.20;41.10;;;;;;5054350;28;20506;-84
2023/03/22 12:11:01;;;;;;;1.20;1.10;;;21.00;39.70;;;;;;5021603;28;20538;-84
2023/03/22 12:13:35;;;;;;;1.10;0.93;;;21.00;39.80;;;;;;5052650;28;20486;-85
2023/03/22 12:16:06;;;;;;;1.57;1.30;;;20.90;41.10;;;;;;5043904;28;20483;-85
2023/03/22 12:18:39;;;;;;;2.07;0.90;;;21.00;41.00;;;;;;5052556;28;20444;-84
2023/03/22 12:21:07;;;;;;;1.30;1.10;;;21.40;39.90;;;;;;5067244;28;20909;-84
2023/03/22 12:23:34;;;;;;;1.30;0.93;;;21.90;42.40;;;;;;5071834;28;20461;-86
2023/03/22 12:26:06;;;;;;;1.70;1.17;;;22.20;40.00;;;;;;5026788;28;20481;-85
2023/03/22 12:28:39;;;;;;;1.30;1.00;;;22.20;38.90;;;;;;5037471;28;20468;-84
2023/03/22 12:31:10;;;;;;;1.50;0.90;;;21.90;38.50;;;;;;5042410;28;20969;-84
2023/03/22 12:33:44;;;;;;;1.20;1.00;;;21.40;39.50;;;;;;5057830;28;20519;-85
2023/03/22 12:36:17;;;;;;;1.83;1.20;;;21.20;39.60;;;;;;5041117;28;20486;-85
2023/03/22 12:38:49;;;;;;;1.30;1.20;;;20.80;39.50;;;;;;5026714;28;20449;-85
2023/03/22 12:41:19;;;;;;;1.23;1.00;;;20.80;40.20;;;;;;5058869;28;21049;-86
2023/03/22 12:43:51;;;;;;;1.77;0.90;;;20.70;39.90;;;;;;5039424;28;20530;-85
2023/03/22 12:46:23;;;;;;;1.20;1.10;;;20.70;40.00;;;;;;5024897;28;20470;-85
2023/03/22 12:48:57;;;;;;;1.60;1.20;;;20.90;41.30;;;;;;5041187;28;20467;-85
2023/03/22 12:51:24;;;;;;;1.63;1.17;;;21.10;40.80;;;;;;5051690;28;20445;-83
2023/03/22 12:53:54;;;;;;;1.60;1.20;;;21.20;40.10;;;;;;5041747;28;20444;-85
2023/03/22 12:56:24;;;;;;;1.23;1.00;;;21.20;40.00;;;;;;5059029;28;20463;-84
2023/03/22 12:58:54;;;;;;;1.20;1.03;;;21.40;40.90;;;;;;5067159;28;20810;-86